Time;durP1;ratioP1;P1;durP2;ratioP2;P2;SDS_P1;SDS_P2;PMS_P1;PMS_P2;Temp;Humidity;BMP_temperature;BMP_pressure;BME280_temperature;BME280_humidity;BME280_pressure;Samples;Min_cycle;Max_cycle;Signal;HPM_P1;HPM_P2
2022/03/20 00:00:34;;;;;;;6.32;2.50;;;8.60;95.30;;;;;;5024494;28;20199;-78
2022/03/20 00:03:09;;;;;;;7.57;2.63;;;8.50;95.20;;;;;;5032461;28;20033;-78
2022/03/20 00:05:38;;;;;;;6.72;2.33;;;8.50;95.30;;;;;;5030634;28;20057;-78
2022/03/20 00:08:09;;;;;;;6.35;2.63;;;8.40;95.20;;;;;;5026433;28;20070;-79
2022/03/20 00:10:40;;;;;;;6.45;2.50;;;8.40;95.80;;;;;;5043325;28;20095;-78
2022/03/20 00:13:07;;;;;;;6.40;2.83;;;8.40;95.40;;;;;;5026712;28;20100;-78
2022/03/20 00:15:34;;;;;;;6.68;3.25;;;8.40;95.30;;;;;;5029078;28;20117;-79
2022/03/20 00:17:59;;;;;;;6.15;3.60;;;8.40;95.30;;;;;;5042255;28;20032;-78
2022/03/20 00:20:25;;;;;;;9.18;3.10;;;8.40;95.30;;;;;;5039458;28;20033;-79
2022/03/20 00:22:51;;;;;;;6.65;2.90;;;8.30;94.70;;;;;;5035700;28;20030;-79
2022/03/20 00:25:16;;;;;;;6.35;3.10;;;8.20;95.10;;;;;;5033620;28;20063;-79
2022/03/20 00:27:42;;;;;;;12.50;4.10;;;8.20;95.40;;;;;;5035654;28;20515;-79
2022/03/20 00:30:08;;;;;;;5.88;3.55;;;8.20;94.90;;;;;;5031421;28;20140;-79
2022/03/20 00:32:34;;;;;;;8.90;3.50;;;8.20;95.70;;;;;;5036556;28;20033;-79
2022/03/20 00:35:00;;;;;;;6.65;2.88;;;8.10;95.30;;;;;;5027124;28;20120;-79
2022/03/20 00:37:29;;;;;;;6.68;3.30;;;8.00;95.90;;;;;;5036697;28;20028;-79
2022/03/20 00:39:55;;;;;;;9.98;4.28;;;8.00;95.80;;;;;;5035648;28;20041;-79
2022/03/20 00:42:21;;;;;;;8.45;3.92;;;8.00;95.90;;;;;;5036925;28;20053;-80
2022/03/20 00:44:46;;;;;;;7.32;4.78;;;7.90;95.60;;;;;;5035360;28;20088;-79
2022/03/20 00:47:13;;;;;;;6.65;3.72;;;7.90;96.10;;;;;;5038606;28;20453;-78
2022/03/20 00:49:39;;;;;;;6.97;3.70;;;7.80;95.90;;;;;;5033409;28;20041;-78
2022/03/20 00:52:06;;;;;;;8.45;3.72;;;7.80;96.20;;;;;;5030583;28;20090;-78
2022/03/20 00:54:32;;;;;;;7.72;4.20;;;7.70;95.90;;;;;;5034676;28;20040;-78
2022/03/20 00:56:58;;;;;;;8.90;4.00;;;7.70;96.40;;;;;;5050418;28;20474;-78
2022/03/20 00:59:24;;;;;;;8.93;3.85;;;7.70;96.70;;;;;;5047953;28;20036;-79
2022/03/20 01:01:49;;;;;;;7.38;4.03;;;7.60;96.50;;;;;;5033484;28;20045;-78
2022/03/20 01:04:16;;;;;;;8.65;3.75;;;7.60;96.50;;;;;;5036190;28;20036;-78
2022/03/20 01:06:42;;;;;;;11.70;4.97;;;7.60;96.30;;;;;;5025344;28;20029;-78
2022/03/20 01:09:08;;;;;;;10.65;4.93;;;7.50;96.20;;;;;;5042603;28;20034;-79
2022/03/20 01:11:34;;;;;;;11.40;4.93;;;7.60;96.00;;;;;;5028708;28;20425;-78
2022/03/20 01:14:00;;;;;;;11.27;4.93;;;7.50;96.70;;;;;;5037345;28;20040;-78
2022/03/20 01:16:26;;;;;;;9.15;4.93;;;7.40;96.50;;;;;;5031711;28;20080;-77
2022/03/20 01:18:52;;;;;;;13.27;5.47;;;7.30;96.40;;;;;;5030735;28;20458;-78
2022/03/20 01:21:17;;;;;;;10.55;5.00;;;7.30;96.50;;;;;;5023099;28;20443;-78
2022/03/20 01:23:43;;;;;;;10.80;4.95;;;7.30;96.00;;;;;;5025142;28;20041;-78
2022/03/20 01:26:11;;;;;;;12.23;5.57;;;7.30;96.40;;;;;;5039809;28;20029;-78
2022/03/20 01:28:37;;;;;;;8.43;5.28;;;7.20;96.60;;;;;;5029668;28;20030;-79
2022/03/20 01:31:02;;;;;;;9.80;5.13;;;7.10;96.70;;;;;;5035329;28;20034;-79
2022/03/20 01:33:28;;;;;;;12.75;6.43;;;7.10;96.70;;;;;;5030333;28;20073;-77
2022/03/20 01:35:53;;;;;;;10.68;6.25;;;7.00;96.80;;;;;;5031146;28;20565;-78
2022/03/20 01:38:20;;;;;;;9.18;6.22;;;6.90;96.70;;;;;;5035902;28;20037;-78
2022/03/20 01:40:49;;;;;;;8.93;5.97;;;7.00;97.20;;;;;;5030324;28;20136;-78
2022/03/20 01:43:16;;;;;;;11.43;7.18;;;6.90;96.80;;;;;;5041414;28;20516;-78
2022/03/20 01:45:41;;;;;;;11.30;6.40;;;6.90;97.30;;;;;;5029366;28;20033;-78
2022/03/20 01:48:07;;;;;;;16.17;7.35;;;6.90;97.20;;;;;;5040133;28;20465;-77
2022/03/20 01:50:33;;;;;;;13.98;6.60;;;6.90;97.80;;;;;;5027379;28;20068;-78
2022/03/20 01:53:00;;;;;;;12.45;7.82;;;6.90;97.90;;;;;;5046209;28;20024;-78
2022/03/20 01:55:28;;;;;;;12.82;7.70;;;6.80;98.80;;;;;;5047292;28;20079;-78
2022/03/20 01:57:56;;;;;;;11.07;7.53;;;6.70;98.30;;;;;;5035246;28;20469;-78
2022/03/20 02:00:24;;;;;;;15.65;9.32;;;6.70;98.40;;;;;;5037564;28;20386;-79
2022/03/20 02:02:51;;;;;;;15.18;8.75;;;6.70;99.30;;;;;;5042324;28;20029;-77
2022/03/20 02:05:18;;;;;;;20.00;9.55;;;6.70;98.70;;;;;;5043098;28;20029;-79
2022/03/20 02:07:47;;;;;;;18.77;9.43;;;6.60;99.60;;;;;;5029941;28;20099;-79
2022/03/20 02:10:14;;;;;;;19.15;10.20;;;6.60;99.00;;;;;;5030096;28;20051;-78
2022/03/20 02:12:40;;;;;;;15.55;10.07;;;6.60;98.70;;;;;;5043283;28;20032;-79
2022/03/20 02:15:12;;;;;;;20.35;11.88;;;6.50;98.60;;;;;;5031992;28;20421;-78
2022/03/20 02:17:44;;;;;;;18.40;10.83;;;6.50;99.30;;;;;;5040426;28;20017;-78
2022/03/20 02:20:10;;;;;;;23.42;12.65;;;6.50;99.30;;;;;;5033077;28;20028;-79
2022/03/20 02:22:42;;;;;;;18.63;11.93;;;6.50;99.20;;;;;;5036615;28;20032;-76
2022/03/20 02:25:10;;;;;;;23.73;13.13;;;6.60;98.90;;;;;;5030412;28;20047;-79
2022/03/20 02:27:39;;;;;;;20.08;12.18;;;6.50;99.00;;;;;;5040949;28;20033;-78
2022/03/20 02:30:12;;;;;;;21.85;13.32;;;6.40;99.40;;;;;;5040921;28;20116;-78
2022/03/20 02:32:41;;;;;;;20.38;13.07;;;6.50;98.70;;;;;;5030102;28;20389;-79
2022/03/20 02:35:11;;;;;;;25.73;14.10;;;6.40;99.00;;;;;;5027543;28;20029;-79
2022/03/20 02:37:40;;;;;;;28.02;15.68;;;6.50;99.10;;;;;;5044315;28;20051;-79
2022/03/20 02:40:06;;;;;;;24.65;15.00;;;6.50;98.70;;;;;;5036509;28;20025;-79
2022/03/20 02:42:32;;;;;;;25.77;16.60;;;6.50;98.80;;;;;;5038490;28;20075;-78
2022/03/20 02:45:10;;;;;;;27.08;16.75;;;6.40;99.80;;;;;;5038135;28;20421;-79
2022/03/20 02:47:40;;;;;;;26.17;18.15;;;6.40;99.40;;;;;;5040184;28;20033;-79
2022/03/20 02:50:11;;;;;;;35.88;19.95;;;6.40;99.60;;;;;;5038833;28;20432;-79
2022/03/20 02:52:43;;;;;;;26.00;18.00;;;6.30;99.70;;;;;;5038316;28;20029;-78
2022/03/20 02:55:09;;;;;;;33.05;19.67;;;6.30;99.90;;;;;;5043131;28;20042;-78
2022/03/20 02:57:35;;;;;;;34.38;20.60;;;6.30;99.50;;;;;;5039950;28;20037;-79
2022/03/20 03:00:05;;;;;;;30.88;20.23;;;6.30;99.90;;;;;;5020052;28;20053;-79
2022/03/20 03:02:35;;;;;;;38.00;22.25;;;6.20;99.90;;;;;;5041957;28;20029;-79
2022/03/20 03:05:01;;;;;;;35.30;23.27;;;6.30;99.80;;;;;;5039020;28;20021;-79
2022/03/20 03:07:28;;;;;;;34.22;23.58;;;6.20;99.90;;;;;;5021883;28;20116;-79
2022/03/20 03:12:38;;;;;;;31.88;21.55;;;6.20;99.90;;;;;;5046655;28;20496;-79
2022/03/20 03:15:19;;;;;;;36.92;20.88;;;6.00;99.90;;;;;;5037490;28;20030;-79
2022/03/20 03:17:46;;;;;;;34.53;22.63;;;6.10;99.90;;;;;;5041280;28;20381;-79
2022/03/20 03:20:12;;;;;;;35.15;21.95;;;6.00;99.90;;;;;;5036118;28;20030;-80
2022/03/20 03:22:38;;;;;;;32.65;21.02;;;5.80;99.90;;;;;;5036597;28;20029;-80
2022/03/20 03:25:05;;;;;;;35.22;21.55;;;5.90;99.90;;;;;;5038802;28;20041;-78
2022/03/20 03:27:31;;;;;;;34.25;20.55;;;5.90;99.90;;;;;;5034957;28;20033;-79
2022/03/20 03:29:57;;;;;;;36.58;23.23;;;6.00;99.90;;;;;;5045993;28;20087;-79
2022/03/20 03:32:23;;;;;;;38.65;22.63;;;6.00;99.90;;;;;;5039931;28;20458;-80
2022/03/20 03:37:43;;;;;;;33.08;21.73;;;6.00;99.90;;;;;;5014496;28;20387;-81
2022/03/20 03:40:09;;;;;;;37.10;23.27;;;5.90;99.90;;;;;;5031036;28;20026;-79
2022/03/20 03:42:36;;;;;;;36.45;23.05;;;6.00;99.90;;;;;;5046170;28;20021;-79
2022/03/20 03:45:05;;;;;;;37.58;23.95;;;5.90;99.90;;;;;;5042152;28;20105;-79
2022/03/20 03:47:30;;;;;;;34.85;22.17;;;5.90;99.90;;;;;;5035775;28;20029;-79
2022/03/20 03:49:56;;;;;;;35.47;21.85;;;5.80;99.90;;;;;;5041281;28;20044;-80
2022/03/20 03:52:22;;;;;;;37.05;22.05;;;5.80;99.90;;;;;;5041823;28;20029;-79
2022/03/20 03:54:47;;;;;;;39.15;22.98;;;5.70;99.90;;;;;;5034778;28;20079;-79
2022/03/20 03:57:13;;;;;;;36.47;21.42;;;5.70;99.90;;;;;;5037996;28;20029;-79
2022/03/20 03:59:39;;;;;;;38.75;23.98;;;5.70;99.90;;;;;;5050573;28;20124;-78
2022/03/20 04:02:05;;;;;;;39.13;24.80;;;5.70;99.90;;;;;;5036889;28;20045;-79
2022/03/20 04:04:31;;;;;;;38.65;23.83;;;5.70;99.90;;;;;;5047743;28;20064;-79
2022/03/20 04:06:57;;;;;;;38.55;22.08;;;5.60;99.90;;;;;;5040516;28;20094;-79
2022/03/20 04:09:24;;;;;;;39.70;25.90;;;5.80;99.90;;;;;;5047462;28;20033;-79
2022/03/20 04:11:49;;;;;;;37.28;24.83;;;5.80;99.90;;;;;;5037495;28;20535;-80
2022/03/20 04:14:15;;;;;;;39.88;24.25;;;5.90;99.90;;;;;;5046970;28;20037;-79
2022/03/20 04:16:41;;;;;;;37.03;23.67;;;5.90;99.90;;;;;;5045124;28;20678;-79
2022/03/20 04:19:07;;;;;;;42.47;24.00;;;5.90;99.90;;;;;;5048243;28;20112;-79
2022/03/20 04:21:33;;;;;;;37.08;23.83;;;5.90;99.90;;;;;;5036006;28;20370;-79
2022/03/20 04:23:59;;;;;;;36.03;21.80;;;5.80;99.90;;;;;;5045385;28;20051;-79
2022/03/20 04:26:25;;;;;;;36.75;22.85;;;5.80;99.90;;;;;;5045875;28;20476;-79
2022/03/20 04:28:52;;;;;;;38.17;23.17;;;5.80;99.80;;;;;;5047203;28;20116;-80
2022/03/20 04:31:20;;;;;;;39.72;24.00;;;5.80;99.60;;;;;;5044265;28;20132;-80
2022/03/20 04:33:56;;;;;;;37.38;21.88;;;5.80;99.50;;;;;;5037314;28;20025;-78
2022/03/20 04:36:23;;;;;;;40.45;24.52;;;5.70;99.90;;;;;;5037303;28;20431;-79
2022/03/20 04:38:51;;;;;;;36.67;22.77;;;5.70;99.60;;;;;;5038403;28;20053;-78
2022/03/20 04:41:17;;;;;;;39.17;22.65;;;5.60;99.70;;;;;;5036939;28;20025;-78
2022/03/20 04:43:44;;;;;;;37.90;23.90;;;5.60;99.80;;;;;;5044523;28;20021;-79
2022/03/20 04:46:12;;;;;;;35.67;21.98;;;5.70;99.60;;;;;;5043835;28;20021;-78
2022/03/20 04:59:34;;;;;;;37.80;23.83;;;5.60;99.70;;;;;;5032966;28;20091;-78
2022/03/20 05:02:00;;;;;;;37.78;23.33;;;5.60;99.60;;;;;;5047253;28;20025;-79
2022/03/20 05:04:26;;;;;;;40.75;24.17;;;5.60;99.50;;;;;;5042666;28;20389;-79
2022/03/20 05:06:51;;;;;;;37.67;23.40;;;5.60;99.80;;;;;;5040651;28;20458;-78
2022/03/20 05:14:45;;;;;;;41.05;23.40;;;5.40;99.80;;;;;;5044825;28;20500;-79
2022/03/20 05:17:11;;;;;;;35.95;22.73;;;5.40;99.90;;;;;;5044201;28;20025;-78
2022/03/20 05:19:38;;;;;;;39.92;24.85;;;5.50;99.90;;;;;;5035076;28;20124;-79
2022/03/20 05:22:05;;;;;;;38.08;23.45;;;5.40;99.90;;;;;;5037174;28;20481;-78
2022/03/20 05:24:33;;;;;;;38.95;24.17;;;5.40;99.90;;;;;;5035346;28;20026;-79
2022/03/20 05:26:59;;;;;;;42.88;23.52;;;5.40;99.90;;;;;;5033793;28;20021;-79
2022/03/20 05:29:24;;;;;;;38.33;25.48;;;5.50;99.90;;;;;;5039522;28;20456;-78
2022/03/20 05:31:51;;;;;;;39.95;24.35;;;5.40;99.70;;;;;;5033615;28;20033;-78
2022/03/20 05:34:17;;;;;;;37.50;23.88;;;5.40;99.90;;;;;;5035522;28;20026;-79
2022/03/20 05:36:43;;;;;;;37.55;23.80;;;5.40;99.60;;;;;;5043469;28;20026;-78
2022/03/20 05:39:09;;;;;;;42.60;24.85;;;5.30;99.70;;;;;;5035565;28;20022;-77
2022/03/20 05:41:47;;;;;;;38.83;24.80;;;5.30;99.90;;;;;;5038933;28;20036;-78
2022/03/20 05:44:18;;;;;;;41.70;26.55;;;5.30;99.70;;;;;;5035360;28;20049;-78
2022/03/20 05:46:48;;;;;;;38.97;22.95;;;5.30;99.80;;;;;;5032521;28;20026;-78
2022/03/20 05:49:17;;;;;;;42.75;24.40;;;5.30;99.60;;;;;;5040965;28;20090;-79
2022/03/20 05:51:43;;;;;;;42.38;23.95;;;5.20;99.50;;;;;;5046610;28;20025;-78
2022/03/20 05:54:09;;;;;;;42.00;24.92;;;5.20;99.90;;;;;;5042549;28;20474;-78
2022/03/20 05:59:20;;;;;;;42.33;24.52;;;5.10;99.70;;;;;;5036515;28;20048;-78
2022/03/20 06:01:46;;;;;;;36.17;22.48;;;5.10;99.90;;;;;;5032271;28;20112;-78
2022/03/20 06:04:13;;;;;;;42.28;24.38;;;5.20;99.80;;;;;;5041762;28;20029;-78
2022/03/20 06:06:42;;;;;;;41.28;24.75;;;5.20;99.80;;;;;;5034579;28;20150;-78
2022/03/20 06:09:08;;;;;;;43.55;25.10;;;5.30;99.90;;;;;;5033415;28;20030;-78
2022/03/20 06:11:34;;;;;;;39.88;25.50;;;5.30;99.90;;;;;;5041026;28;20496;-78
2022/03/20 06:14:01;;;;;;;42.88;25.98;;;5.30;99.90;;;;;;5053815;28;20066;-78
2022/03/20 06:16:28;;;;;;;43.53;25.08;;;5.40;99.90;;;;;;5034739;28;20056;-79
2022/03/20 06:18:55;;;;;;;38.38;23.55;;;5.50;99.40;;;;;;5033007;28;20029;-78
2022/03/20 06:21:20;;;;;;;37.55;23.95;;;5.40;99.70;;;;;;5039381;28;20022;-79
2022/03/20 06:23:46;;;;;;;38.92;22.35;;;5.50;99.40;;;;;;5046319;28;20029;-78
2022/03/20 06:26:12;;;;;;;40.17;23.17;;;5.50;99.20;;;;;;5037312;28;20037;-80
2022/03/20 06:28:40;;;;;;;39.08;23.65;;;5.50;99.50;;;;;;5038578;28;20035;-79
2022/03/20 06:31:10;;;;;;;39.53;24.30;;;5.60;99.30;;;;;;5048182;28;20033;-78
2022/03/20 06:33:37;;;;;;;40.95;24.20;;;5.60;99.30;;;;;;5046068;28;20036;-78
2022/03/20 06:36:03;;;;;;;39.25;22.45;;;5.60;99.30;;;;;;5046444;28;20457;-79
2022/03/20 06:38:30;;;;;;;40.38;24.83;;;5.60;99.40;;;;;;5053325;28;20036;-79
2022/03/20 06:40:56;;;;;;;37.95;21.92;;;5.50;99.90;;;;;;5037398;28;20111;-79
2022/03/20 06:43:23;;;;;;;35.75;22.35;;;5.50;99.00;;;;;;5037966;28;20033;-76
2022/03/20 06:45:49;;;;;;;35.60;22.05;;;5.60;99.20;;;;;;5035711;28;20506;-79
2022/03/20 06:48:15;;;;;;;35.20;22.45;;;5.60;99.00;;;;;;5036339;28;20025;-76
2022/03/20 06:50:41;;;;;;;45.55;22.77;;;5.70;98.80;;;;;;5034224;28;20382;-79
2022/03/20 06:53:07;;;;;;;36.40;21.95;;;5.60;98.90;;;;;;5035681;28;20466;-78
2022/03/20 06:55:33;;;;;;;38.83;23.90;;;5.70;98.40;;;;;;5051931;28;20041;-79
2022/03/20 06:57:59;;;;;;;38.90;22.58;;;5.70;98.70;;;;;;5037047;28;20021;-79
2022/03/20 07:00:28;;;;;;;35.55;20.95;;;5.80;98.60;;;;;;5038269;28;20056;-78
2022/03/20 07:02:55;;;;;;;37.58;22.25;;;5.70;98.50;;;;;;5031961;28;20030;-79
2022/03/20 07:05:21;;;;;;;36.03;20.98;;;5.80;98.40;;;;;;5036002;28;20014;-79
2022/03/20 07:07:48;;;;;;;39.22;22.65;;;5.90;97.70;;;;;;5035354;28;20025;-80
2022/03/20 07:10:14;;;;;;;34.95;22.55;;;5.90;97.90;;;;;;5032950;28;20378;-79
2022/03/20 07:12:40;;;;;;;32.88;22.75;;;6.00;97.90;;;;;;5032807;28;20021;-81
2022/03/20 07:15:06;;;;;;;33.38;20.92;;;6.00;97.70;;;;;;5032445;28;20041;-79
2022/03/20 07:17:37;;;;;;;32.28;21.13;;;6.00;97.40;;;;;;5034075;28;20089;-79
2022/03/20 07:20:09;;;;;;;35.80;23.02;;;6.00;97.20;;;;;;5033513;28;20065;-80
2022/03/20 07:22:35;;;;;;;33.03;22.17;;;6.10;98.30;;;;;;5037937;28;20020;-79
2022/03/20 07:29:29;;;;;;;36.17;21.92;;;6.10;97.30;;;;;;5036060;28;20033;-79
2022/03/20 07:30:32;;;;;;;34.53;21.13;;;6.10;97.10;;;;;;5040675;28;20043;-80
2022/03/20 07:32:58;;;;;;;33.08;20.55;;;6.10;96.90;;;;;;5038539;28;20026;-79
2022/03/20 07:35:24;;;;;;;32.80;21.27;;;6.20;96.90;;;;;;5028835;28;20079;-79
2022/03/20 07:37:51;;;;;;;35.63;21.25;;;6.30;97.10;;;;;;5046229;28;20029;-79
2022/03/20 07:40:17;;;;;;;38.15;21.00;;;6.30;96.70;;;;;;5037186;28;20378;-80
2022/03/20 07:42:42;;;;;;;38.97;22.33;;;6.30;97.20;;;;;;5033545;28;20036;-80
2022/03/20 07:45:09;;;;;;;35.22;22.17;;;6.20;97.00;;;;;;5049454;28;20060;-79
2022/03/20 07:47:35;;;;;;;40.95;23.00;;;6.20;97.70;;;;;;5047013;28;20029;-77
2022/03/20 07:50:06;;;;;;;35.63;21.00;;;6.20;97.90;;;;;;5046920;28;20083;-80
2022/03/20 07:52:35;;;;;;;34.08;20.98;;;6.20;97.80;;;;;;5034567;28;20042;-78
2022/03/20 07:55:01;;;;;;;36.97;22.58;;;6.20;98.20;;;;;;5029552;28;20052;-78
2022/03/20 07:57:29;;;;;;;36.65;22.00;;;6.30;98.40;;;;;;5037189;28;20060;-80
2022/03/20 07:59:56;;;;;;;36.40;21.90;;;6.30;98.50;;;;;;5030612;28;20025;-80
2022/03/20 08:02:23;;;;;;;39.78;24.10;;;6.30;98.80;;;;;;5031772;28;20064;-79
2022/03/20 08:04:49;;;;;;;35.95;22.90;;;6.40;98.60;;;;;;5031498;28;20040;-80
2022/03/20 08:07:14;;;;;;;37.63;23.33;;;6.50;97.80;;;;;;5033475;28;20382;-80
2022/03/20 08:09:40;;;;;;;36.47;23.00;;;6.60;97.50;;;;;;5031710;28;20041;-79
2022/03/20 08:12:07;;;;;;;39.42;23.67;;;6.60;97.40;;;;;;5034718;28;20092;-79
2022/03/20 08:14:35;;;;;;;39.03;23.58;;;6.60;97.20;;;;;;5033552;28;20013;-78
2022/03/20 08:17:00;;;;;;;36.22;22.92;;;6.60;97.70;;;;;;5037759;28;20506;-79
2022/03/20 08:19:26;;;;;;;37.15;22.33;;;6.60;97.40;;;;;;5031034;28;20033;-78
2022/03/20 08:21:51;;;;;;;41.15;23.55;;;6.80;97.50;;;;;;5030975;28;20485;-77
2022/03/20 08:24:18;;;;;;;36.78;22.55;;;6.90;97.60;;;;;;5037779;28;20527;-77
2022/03/20 08:26:44;;;;;;;35.85;22.25;;;7.00;97.10;;;;;;5026662;28;20037;-80
2022/03/20 08:29:12;;;;;;;38.05;22.65;;;7.10;97.20;;;;;;5033590;28;20068;-75
2022/03/20 08:31:43;;;;;;;37.92;21.67;;;7.10;96.80;;;;;;5029941;28;20025;-79
2022/03/20 08:34:09;;;;;;;34.90;21.85;;;7.00;96.30;;;;;;5032989;28;20034;-80
2022/03/20 08:36:35;;;;;;;37.78;23.92;;;7.10;96.40;;;;;;5036728;28;20013;-79
2022/03/20 08:39:01;;;;;;;33.97;23.13;;;7.20;96.50;;;;;;5036340;28;20121;-79
2022/03/20 08:41:26;;;;;;;33.42;21.10;;;7.10;96.50;;;;;;5038735;28;20105;-79
2022/03/20 08:43:52;;;;;;;35.83;19.58;;;7.20;96.40;;;;;;5038281;28;20025;-80
2022/03/20 08:46:18;;;;;;;33.83;20.35;;;7.30;95.80;;;;;;5031844;28;20025;-80
2022/03/20 08:48:43;;;;;;;36.55;22.10;;;7.30;96.20;;;;;;5035551;28;20113;-81
2022/03/20 08:51:09;;;;;;;33.63;21.80;;;7.40;96.00;;;;;;5035188;28;20029;-80
2022/03/20 08:53:35;;;;;;;36.55;21.23;;;7.60;96.20;;;;;;5040490;28;20025;-81
2022/03/20 08:56:01;;;;;;;35.30;23.33;;;7.70;95.40;;;;;;5043480;28;20033;-80
2022/03/20 08:58:27;;;;;;;37.10;23.45;;;7.80;96.30;;;;;;5038611;28;20044;-82
2022/03/20 09:00:53;;;;;;;41.13;22.75;;;7.80;95.70;;;;;;5035660;28;20462;-81
2022/03/20 09:03:18;;;;;;;34.08;21.77;;;7.80;94.40;;;;;;5041812;28;20028;-79
2022/03/20 09:05:44;;;;;;;34.05;21.55;;;7.80;95.10;;;;;;5040768;28;20033;-79
2022/03/20 09:08:10;;;;;;;37.95;22.40;;;8.00;94.20;;;;;;5036003;28;20025;-81
2022/03/20 09:10:35;;;;;;;38.05;20.85;;;8.10;94.60;;;;;;5044029;28;20037;-83
2022/03/20 09:13:02;;;;;;;34.17;22.02;;;8.30;95.10;;;;;;5040907;28;20531;-79
2022/03/20 09:15:29;;;;;;;33.85;21.77;;;8.40;94.80;;;;;;5050307;28;20090;-77
2022/03/20 09:20:41;;;;;;;35.95;22.00;;;8.20;93.80;;;;;;5038337;28;20028;-79
2022/03/20 09:23:09;;;;;;;38.13;21.95;;;8.30;93.90;;;;;;5038911;28;20017;-81
2022/03/20 09:25:35;;;;;;;36.60;23.55;;;8.30;93.90;;;;;;5041816;28;20122;-81
2022/03/20 09:28:02;;;;;;;36.67;22.92;;;8.30;94.00;;;;;;5041602;28;20029;-82
2022/03/20 09:30:28;;;;;;;39.40;23.10;;;8.50;93.70;;;;;;5041451;28;20071;-79
2022/03/20 09:32:53;;;;;;;37.55;24.42;;;8.50;94.00;;;;;;5039696;28;20025;-83
2022/03/20 09:35:19;;;;;;;37.08;22.35;;;8.60;94.40;;;;;;5052562;28;20351;-81
2022/03/20 09:37:45;;;;;;;40.92;24.35;;;8.60;94.60;;;;;;5045336;28;20033;-82
2022/03/20 09:40:12;;;;;;;35.70;23.90;;;8.80;94.10;;;;;;5041976;28;20025;-81
2022/03/20 09:42:38;;;;;;;40.30;23.23;;;8.80;93.90;;;;;;5038734;28;20029;-83
2022/03/20 09:45:05;;;;;;;40.85;24.33;;;8.90;94.50;;;;;;5033002;28;20029;-81
2022/03/20 09:47:36;;;;;;;36.22;22.75;;;8.80;94.40;;;;;;5033889;28;20431;-81
2022/03/20 09:50:02;;;;;;;38.33;25.25;;;8.70;93.80;;;;;;5043405;28;20116;-81
2022/03/20 09:52:28;;;;;;;39.72;25.02;;;8.70;93.80;;;;;;5036808;28;20064;-81
2022/03/20 09:54:54;;;;;;;38.60;24.45;;;8.80;94.20;;;;;;5036781;28;20439;-82
2022/03/20 09:57:19;;;;;;;38.53;25.27;;;8.80;94.00;;;;;;5046087;28;20433;-85
2022/03/20 09:59:45;;;;;;;40.70;25.85;;;8.90;94.90;;;;;;5038277;28;20070;-81
2022/03/20 10:02:12;;;;;;;37.65;23.58;;;9.00;94.40;;;;;;5036714;28;20044;-81
2022/03/20 10:05:07;;;;;;;40.30;26.90;;;8.90;94.30;;;;;;5040143;28;20524;-81
2022/03/20 10:07:36;;;;;;;42.58;24.95;;;8.80;94.20;;;;;;5037990;28;20484;-79
2022/03/20 10:10:31;;;;;;;45.70;25.27;;;8.90;94.00;;;;;;5035281;28;20029;-81
2022/03/20 10:13:00;;;;;;;44.13;26.70;;;8.80;93.90;;;;;;5029128;28;20041;-80
2022/03/20 10:15:37;;;;;;;43.20;24.85;;;8.90;94.10;;;;;;5044917;28;20607;-81
2022/03/20 10:18:18;;;;;;;45.80;25.98;;;9.10;94.40;;;;;;5037132;28;20366;-81
2022/03/20 10:20:53;;;;;;;41.50;25.30;;;9.30;94.80;;;;;;5036121;28;20024;-81
2022/03/20 10:23:41;;;;;;;41.83;25.60;;;9.50;94.30;;;;;;5044908;28;20051;-82
2022/03/20 10:26:12;;;;;;;38.33;25.70;;;9.50;94.50;;;;;;5047463;28;20021;-81
2022/03/20 10:28:42;;;;;;;44.10;26.55;;;9.60;94.00;;;;;;5040763;28;20033;-81
2022/03/20 10:31:20;;;;;;;43.10;26.83;;;9.60;94.30;;;;;;5053534;28;20120;-81
2022/03/20 10:34:09;;;;;;;41.28;26.70;;;9.80;93.80;;;;;;5035895;28;20033;-80
2022/03/20 10:36:36;;;;;;;44.72;26.65;;;9.80;93.90;;;;;;5039372;28;20025;-80
2022/03/20 10:39:08;;;;;;;40.45;25.50;;;9.80;94.10;;;;;;5043864;28;20029;-83
2022/03/20 10:41:34;;;;;;;45.30;25.50;;;9.80;94.70;;;;;;5033275;28;20053;-81
2022/03/20 10:44:01;;;;;;;42.45;26.48;;;9.60;94.70;;;;;;5042476;28;20028;-79
2022/03/20 10:46:29;;;;;;;38.95;24.88;;;9.50;95.00;;;;;;5048979;28;20304;-80
2022/03/20 10:49:00;;;;;;;41.92;27.35;;;9.50;95.50;;;;;;5036364;28;20060;-81
2022/03/20 10:51:40;;;;;;;43.33;27.88;;;9.50;95.60;;;;;;5034087;28;20036;-80
2022/03/20 10:54:10;;;;;;;39.97;25.05;;;9.60;95.70;;;;;;5044129;28;20033;-80
2022/03/20 10:56:37;;;;;;;42.25;25.90;;;9.70;95.60;;;;;;5033739;28;20366;-81
2022/03/20 10:59:16;;;;;;;43.00;27.25;;;9.70;96.50;;;;;;5035291;28;20380;-80
2022/03/20 11:01:43;;;;;;;44.55;28.70;;;9.80;96.60;;;;;;5048050;28;20450;-80
2022/03/20 11:04:11;;;;;;;45.75;27.35;;;9.70;97.30;;;;;;5039938;28;20056;-81
2022/03/20 11:06:37;;;;;;;40.88;27.75;;;9.50;97.50;;;;;;5031331;28;20057;-82
2022/03/20 11:09:04;;;;;;;40.83;26.73;;;9.30;98.00;;;;;;5034147;28;20343;-80
2022/03/20 11:11:37;;;;;;;46.38;28.05;;;9.30;98.50;;;;;;5046542;28;20124;-80
2022/03/20 11:14:04;;;;;;;42.08;26.90;;;9.30;98.30;;;;;;5042540;28;20047;-81
2022/03/20 11:16:36;;;;;;;44.88;28.13;;;9.30;98.40;;;;;;5038629;28;20351;-81
2022/03/20 11:19:05;;;;;;;44.22;28.50;;;9.10;98.90;;;;;;5033902;28;20474;-80
2022/03/20 11:21:35;;;;;;;46.50;31.02;;;9.00;99.10;;;;;;5042805;28;20033;-81
2022/03/20 11:24:02;;;;;;;46.17;31.80;;;9.00;99.40;;;;;;5039311;28;20026;-80
2022/03/20 11:26:29;;;;;;;44.47;28.67;;;9.00;99.30;;;;;;5031599;28;20045;-82
2022/03/20 11:29:00;;;;;;;44.83;28.17;;;9.20;99.30;;;;;;5031647;28;20024;-81
2022/03/20 11:31:26;;;;;;;43.20;26.70;;;9.30;99.10;;;;;;5034524;28;20130;-80
2022/03/20 11:33:55;;;;;;;42.83;27.15;;;9.40;98.90;;;;;;5038948;28;20029;-81
2022/03/20 11:36:21;;;;;;;43.67;25.38;;;9.30;98.50;;;;;;5039475;28;20022;-81
2022/03/20 11:39:12;;;;;;;43.78;28.65;;;9.40;98.70;;;;;;5035941;28;20446;-81
2022/03/20 11:41:38;;;;;;;42.13;25.45;;;9.50;98.80;;;;;;5044962;28;20075;-81
2022/03/20 11:44:16;;;;;;;43.10;27.00;;;9.30;98.60;;;;;;5037488;28;20373;-82
2022/03/20 11:46:44;;;;;;;46.08;30.05;;;9.20;98.10;;;;;;5031855;28;20030;-81
2022/03/20 11:49:20;;;;;;;49.72;31.30;;;9.20;98.60;;;;;;5021845;28;20185;-80
2022/03/20 11:51:58;;;;;;;42.08;27.40;;;9.40;98.40;;;;;;5032312;28;20259;-81
2022/03/20 11:54:39;;;;;;;47.78;29.15;;;9.50;98.50;;;;;;5034057;28;20034;-81
2022/03/20 11:57:28;;;;;;;47.53;28.48;;;9.50;98.50;;;;;;5040369;28;20108;-80
2022/03/20 11:59:55;;;;;;;46.05;29.85;;;9.50;97.70;;;;;;5033277;28;20113;-81
2022/03/20 12:02:33;;;;;;;46.38;30.38;;;9.50;97.30;;;;;;5034353;28;20465;-81
2022/03/20 12:05:13;;;;;;;42.85;28.00;;;9.50;97.30;;;;;;5039347;28;20347;-81
2022/03/20 12:08:00;;;;;;;43.92;28.42;;;9.60;97.70;;;;;;5035199;28;20104;-80
2022/03/20 12:10:46;;;;;;;44.58;29.38;;;9.60;97.70;;;;;;5028885;28;20044;-81
2022/03/20 12:13:26;;;;;;;42.72;27.92;;;9.70;97.40;;;;;;5034615;28;20450;-82
2022/03/20 12:15:53;;;;;;;44.30;28.13;;;9.90;97.20;;;;;;5039665;28;20174;-81
2022/03/20 12:18:19;;;;;;;44.85;27.33;;;9.90;96.90;;;;;;5045347;28;20025;-80
2022/03/20 12:20:48;;;;;;;40.92;27.58;;;10.00;97.10;;;;;;5031888;28;20037;-81
2022/03/20 12:23:43;;;;;;;44.45;30.23;;;9.90;96.30;;;;;;5043759;28;20032;-81
2022/03/20 12:26:24;;;;;;;46.90;29.10;;;9.90;96.70;;;;;;5037124;28;20033;-80
2022/03/20 12:28:50;;;;;;;46.00;27.85;;;10.10;96.50;;;;;;5038395;28;20105;-81
2022/03/20 12:31:49;;;;;;;43.22;27.60;;;10.10;96.50;;;;;;5048223;28;20470;-81
2022/03/20 12:34:19;;;;;;;44.15;28.95;;;10.20;96.60;;;;;;5035069;28;20037;-81
2022/03/20 12:36:45;;;;;;;48.05;28.27;;;10.10;96.00;;;;;;5032999;28;20028;-81
2022/03/20 12:39:11;;;;;;;44.65;29.63;;;10.00;96.00;;;;;;5051142;28;20029;-79
2022/03/20 12:41:37;;;;;;;44.10;28.75;;;10.20;95.90;;;;;;5047617;28;20489;-79
2022/03/20 12:44:07;;;;;;;39.90;27.17;;;10.40;95.90;;;;;;5043975;28;20021;-81
2022/03/20 12:46:37;;;;;;;44.03;27.38;;;10.50;96.60;;;;;;5035152;28;20029;-82
2022/03/20 12:49:03;;;;;;;41.63;26.90;;;10.60;95.40;;;;;;5036332;28;20108;-79
2022/03/20 12:51:36;;;;;;;45.83;29.95;;;10.60;95.80;;;;;;5033422;28;20381;-80
2022/03/20 12:54:15;;;;;;;46.60;25.73;;;10.60;95.20;;;;;;5032542;28;20034;-79
2022/03/20 12:56:55;;;;;;;41.78;27.27;;;10.80;96.20;;;;;;5040591;28;20032;-79
2022/03/20 12:59:25;;;;;;;42.35;27.77;;;10.70;94.70;;;;;;5039180;28;20030;-80
2022/03/20 13:01:50;;;;;;;40.80;27.67;;;10.90;94.40;;;;;;5044071;28;20063;-80
2022/03/20 13:04:19;;;;;;;43.15;27.10;;;11.10;94.30;;;;;;5044372;28;20092;-79
2022/03/20 13:06:45;;;;;;;41.55;28.02;;;11.20;94.90;;;;;;5035105;28;20469;-80
2022/03/20 13:09:12;;;;;;;46.22;30.40;;;11.60;94.20;;;;;;5034611;28;20648;-80
2022/03/20 13:11:56;;;;;;;50.05;29.23;;;11.70;92.90;;;;;;5044762;28;20036;-79
2022/03/20 13:14:23;;;;;;;40.17;26.95;;;11.60;93.30;;;;;;5050648;28;20029;-79